Time;durP1;ratioP1;P1;durP2;ratioP2;P2;SDS_P1;SDS_P2;PMS_P1;PMS_P2;Temp;Humidity;BMP_temperature;BMP_pressure;BME280_temperature;BME280_humidity;BME280_pressure;Samples;Min_cycle;Max_cycle;Signal;HPM_P1;HPM_P2
2023/01/23 00:00:18;;;;;;;44.27;26.87;;;;;;;;;;5092954;28;20226;-86
2023/01/23 00:02:45;;;;;;;43.90;26.77;;;;;;;;;;5092610;28;20703;-87
2023/01/23 00:05:14;;;;;;;44.23;26.63;;;;;;;;;;5092696;28;20232;-87
2023/01/23 00:07:42;;;;;;;46.67;26.60;;;;;;;;;;5092585;28;20680;-88
2023/01/23 00:10:09;;;;;;;46.43;28.07;;;;;;;;;;5092636;28;20285;-88
2023/01/23 00:12:37;;;;;;;48.17;28.63;;;;;;;;;;5092709;28;20331;-88
2023/01/23 00:15:04;;;;;;;47.33;28.17;;;;;;;;;;5092639;28;20283;-87
2023/01/23 00:17:31;;;;;;;48.10;27.53;;;;;;;;;;5078413;28;20198;-88
2023/01/23 00:19:59;;;;;;;49.90;28.37;;;;;;;;;;5096981;28;20655;-88
2023/01/23 00:22:28;;;;;;;45.00;27.47;;;;;;;;;;5097002;28;20215;-88
2023/01/23 00:24:55;;;;;;;47.40;27.53;;;;;;;;;;5097073;28;20199;-87
2023/01/23 00:27:22;;;;;;;41.43;25.27;;;;;;;;;;5096854;28;20234;-88
2023/01/23 00:29:49;;;;;;;44.87;26.30;;;;;;;;;;5096194;28;20234;-88
2023/01/23 00:32:17;;;;;;;43.17;25.13;;;;;;;;;;5096304;28;20310;-87
2023/01/23 00:34:44;;;;;;;48.57;28.37;;;;;;;;;;5096637;28;20185;-87
2023/01/23 00:37:11;;;;;;;46.80;26.87;;;;;;;;;;5096531;28;20223;-88
2023/01/23 00:39:40;;;;;;;43.87;25.13;;;;;;;;;;5096167;28;20672;-88
2023/01/23 00:42:07;;;;;;;43.00;25.77;;;;;;;;;;5096146;28;20723;-87
2023/01/23 00:44:34;;;;;;;43.00;25.70;;;;;;;;;;5096387;28;20284;-88
2023/01/23 00:47:02;;;;;;;42.07;23.20;;;;;;;;;;5095830;28;20730;-88
2023/01/23 00:49:29;;;;;;;38.03;22.83;;;;;;;;;;5096448;28;20650;-88
2023/01/23 00:51:56;;;;;;;38.00;21.93;;;;;;;;;;5096428;28;20976;-88
2023/01/23 00:54:24;;;;;;;41.63;23.17;;;;;;;;;;5095980;28;20279;-87
2023/01/23 00:56:53;;;;;;;39.93;23.03;;;;;;;;;;5096138;28;20607;-87
2023/01/23 00:59:21;;;;;;;42.90;24.67;;;;;;;;;;5096255;28;20630;-88
2023/01/23 01:01:48;;;;;;;49.70;25.63;;;;;;;;;;5095777;28;20768;-88
2023/01/23 01:04:16;;;;;;;49.40;26.63;;;;;;;;;;5095970;28;20265;-88
2023/01/23 01:06:43;;;;;;;45.57;25.80;;;;;;;;;;5095990;28;20230;-88
2023/01/23 01:09:10;;;;;;;47.60;25.73;;;;;;;;;;5095669;28;20259;-88
2023/01/23 01:11:37;;;;;;;41.50;24.00;;;;;;;;;;5085678;28;20212;-88
2023/01/23 01:14:06;;;;;;;41.93;23.33;;;;;;;;;;5074562;28;20281;-88
2023/01/23 01:16:34;;;;;;;42.50;23.67;;;;;;;;;;5075591;28;20239;-88
2023/01/23 01:19:01;;;;;;;33.10;21.10;;;;;;;;;;5075637;28;20277;-87
2023/01/23 01:21:29;;;;;;;38.50;21.77;;;;;;;;;;5075519;28;20225;-88
2023/01/23 01:23:56;;;;;;;40.17;21.40;;;;;;;;;;5076074;28;20230;-87
2023/01/23 01:26:25;;;;;;;35.70;20.50;;;;;;;;;;5075657;28;20279;-87
2023/01/23 01:28:52;;;;;;;37.77;21.07;;;;;;;;;;5074268;28;20203;-87
2023/01/23 01:31:20;;;;;;;37.83;21.20;;;;;;;;;;5075009;28;20694;-87
2023/01/23 01:33:49;;;;;;;37.50;20.43;;;;;;;;;;5075338;28;20304;-87
2023/01/23 01:36:17;;;;;;;38.30;21.37;;;;;;;;;;5075189;28;20194;-88
2023/01/23 01:38:45;;;;;;;41.17;21.57;;;;;;;;;;5075898;28;20212;-87
2023/01/23 01:41:13;;;;;;;43.37;21.97;;;;;;;;;;5076108;28;20217;-87
2023/01/23 01:43:40;;;;;;;41.27;21.37;;;;;;;;;;5075858;28;20193;-87
2023/01/23 01:46:10;;;;;;;39.20;20.50;;;;;;;;;;5076286;28;20250;-87
2023/01/23 01:48:41;;;;;;;39.27;22.00;;;;;;;;;;5075545;28;20283;-87
2023/01/23 01:51:10;;;;;;;38.57;20.50;;;;;;;;;;5075381;28;20233;-86
2023/01/23 01:53:38;;;;;;;41.87;22.00;;;;;;;;;;5075295;28;20651;-87
2023/01/23 01:56:06;;;;;;;38.90;21.20;;;;;;;;;;5074796;28;20714;-87
2023/01/23 01:58:34;;;;;;;36.93;21.87;;;;;;;;;;5090770;28;20738;-87
2023/01/23 02:01:01;;;;;;;38.93;21.60;;;;;;;;;;5094867;28;20785;-87
2023/01/23 02:03:28;;;;;;;38.47;20.87;;;;;;;;;;5094549;28;20229;-86
2023/01/23 02:05:57;;;;;;;40.40;20.73;;;;;;;;;;5094449;28;20235;-86
2023/01/23 02:08:27;;;;;;;37.57;21.33;;;;;;;;;;5094767;28;20293;-88
2023/01/23 02:10:54;;;;;;;35.97;20.73;;;;;;;;;;5090770;28;20303;-88
2023/01/23 02:13:24;;;;;;;37.20;20.87;;;;;;;;;;5073770;28;20248;-88
2023/01/23 02:15:52;;;;;;;41.17;21.83;;;;;;;;;;5073835;28;20301;-87
2023/01/23 02:18:19;;;;;;;38.37;21.67;;;;;;;;;;5073976;28;20288;-88
2023/01/23 02:20:47;;;;;;;43.13;21.83;;;;;;;;;;5074150;28;20220;-88
2023/01/23 02:23:21;;;;;;;36.40;20.67;;;;;;;;;;5074296;28;20199;-88
2023/01/23 02:25:55;;;;;;;34.70;20.37;;;;;;;;;;5073894;28;20237;-87
2023/01/23 02:28:22;;;;;;;34.47;20.37;;;;;;;;;;5073489;28;20291;-86
2023/01/23 02:30:50;;;;;;;36.73;20.10;;;;;;;;;;5073994;28;20790;-88
2023/01/23 02:33:36;;;;;;;37.27;20.70;;;;;;;;;;5092726;28;20707;-87
2023/01/23 02:36:04;;;;;;;35.07;20.10;;;;;;;;;;5093876;28;20286;-88
2023/01/23 02:38:36;;;;;;;36.27;19.87;;;;;;;;;;5093663;28;20217;-89
2023/01/23 02:41:06;;;;;;;37.17;20.93;;;;;;;;;;5094494;28;20193;-88
2023/01/23 02:43:35;;;;;;;36.83;19.77;;;;;;;;;;5094580;28;20745;-88
2023/01/23 02:46:03;;;;;;;34.67;19.47;;;;;;;;;;5093997;28;20718;-88
2023/01/23 02:48:30;;;;;;;35.97;19.57;;;;;;;;;;5093807;28;20220;-87
2023/01/23 02:50:58;;;;;;;33.17;19.70;;;;;;;;;;5094224;28;20229;-87
2023/01/23 02:53:26;;;;;;;35.00;20.53;;;;;;;;;;5093940;28;20311;-88
2023/01/23 02:55:55;;;;;;;34.57;19.67;;;;;;;;;;5093822;28;20207;-88
2023/01/23 03:01:08;;;;;;;34.90;20.23;;;;;;;;;;5094048;28;20215;-88
2023/01/23 03:03:35;;;;;;;37.37;20.03;;;;;;;;;;5093798;28;20234;-87
2023/01/23 03:06:04;;;;;;;36.40;20.53;;;;;;;;;;5093919;28;20322;-88
2023/01/23 03:08:35;;;;;;;32.93;19.57;;;;;;;;;;5093631;28;20197;-88
2023/01/23 03:11:03;;;;;;;35.87;19.63;;;;;;;;;;5093167;28;20211;-88
2023/01/23 03:13:31;;;;;;;32.60;18.60;;;;;;;;;;5093413;28;20325;-87
2023/01/23 03:15:59;;;;;;;40.20;21.70;;;;;;;;;;5093879;28;20239;-88
2023/01/23 03:18:29;;;;;;;34.50;19.93;;;;;;;;;;5093519;28;20229;-88
2023/01/23 03:20:56;;;;;;;36.97;19.23;;;;;;;;;;5093905;28;20195;-88
2023/01/23 03:23:24;;;;;;;38.27;21.47;;;;;;;;;;5093641;28;20198;-87
2023/01/23 03:25:57;;;;;;;36.37;20.07;;;;;;;;;;5093152;28;20674;-88
2023/01/23 03:31:10;;;;;;;33.00;19.43;;;;;;;;;;5093224;28;20228;-88
2023/01/23 03:33:38;;;;;;;36.30;19.53;;;;;;;;;;5093307;28;20232;-87
2023/01/23 03:36:06;;;;;;;36.10;19.87;;;;;;;;;;5093231;28;20202;-88
2023/01/23 03:38:34;;;;;;;36.57;20.17;;;;;;;;;;5093215;28;20189;-88
2023/01/23 03:43:46;;;;;;;34.00;18.97;;;;;;;;;;5093242;28;20673;-89
2023/01/23 03:46:14;;;;;;;34.60;19.53;;;;;;;;;;5093389;28;20291;-89
2023/01/23 03:48:42;;;;;;;37.37;20.27;;;;;;;;;;5093317;28;20239;-89
2023/01/23 03:51:09;;;;;;;35.60;19.57;;;;;;;;;;5095305;28;20310;-89
2023/01/23 03:53:36;;;;;;;37.13;20.43;;;;;;;;;;5097594;28;20326;-89
2023/01/23 03:56:04;;;;;;;34.40;19.73;;;;;;;;;;5098164;28;20287;-89
2023/01/23 03:58:31;;;;;;;49.30;25.37;;;;;;;;;;5097667;28;20197;-89
2023/01/23 04:01:01;;;;;;;53.33;28.17;;;;;;;;;;5097772;28;20704;-89
2023/01/23 04:03:31;;;;;;;45.43;23.80;;;;;;;;;;5097345;28;20191;-90
2023/01/23 04:05:59;;;;;;;47.10;25.27;;;;;;;;;;5097605;28;20197;-88
2023/01/23 04:08:27;;;;;;;44.97;23.07;;;;;;;;;;5096928;28;20235;-89
2023/01/23 04:11:01;;;;;;;42.47;23.33;;;;;;;;;;5096892;28;20197;-88
2023/01/23 04:13:28;;;;;;;40.93;23.03;;;;;;;;;;5097044;28;20317;-88
2023/01/23 04:15:55;;;;;;;37.87;21.90;;;;;;;;;;5078935;28;20202;-89
2023/01/23 04:18:23;;;;;;;39.90;21.30;;;;;;;;;;5097289;28;20217;-89
2023/01/23 04:20:51;;;;;;;35.97;19.90;;;;;;;;;;5097184;28;20215;-89
2023/01/23 04:23:19;;;;;;;36.27;20.00;;;;;;;;;;5096673;28;20234;-89
2023/01/23 04:25:46;;;;;;;36.37;20.70;;;;;;;;;;5096725;28;20231;-89
2023/01/23 04:28:13;;;;;;;35.60;20.03;;;;;;;;;;5097024;28;20227;-89
2023/01/23 04:30:40;;;;;;;35.20;20.00;;;;;;;;;;5096832;28;20219;-89
2023/01/23 04:33:08;;;;;;;36.27;19.43;;;;;;;;;;5096355;28;20311;-90
2023/01/23 04:35:35;;;;;;;33.37;17.67;;;;;;;;;;5097062;28;20601;-88
2023/01/23 04:38:04;;;;;;;32.77;18.00;;;;;;;;;;5095876;28;20677;-89
2023/01/23 04:40:32;;;;;;;34.40;17.40;;;;;;;;;;5096638;28;20198;-89
2023/01/23 04:42:59;;;;;;;31.67;17.20;;;;;;;;;;5096733;28;20245;-89
2023/01/23 04:45:26;;;;;;;29.80;16.43;;;;;;;;;;5096792;28;20224;-89
2023/01/23 04:47:53;;;;;;;29.80;16.73;;;;;;;;;;5096537;28;20189;-89
2023/01/23 04:50:21;;;;;;;29.50;17.20;;;;;;;;;;5096530;28;20187;-89
2023/01/23 04:52:48;;;;;;;32.63;17.50;;;;;;;;;;5096309;28;20287;-89
2023/01/23 04:55:17;;;;;;;29.50;17.10;;;;;;;;;;5096233;28;20604;-89
2023/01/23 04:57:44;;;;;;;29.80;16.60;;;;;;;;;;5098013;28;20184;-89
2023/01/23 05:00:13;;;;;;;29.50;16.97;;;;;;;;;;5096831;28;20285;-89
2023/01/23 05:02:40;;;;;;;30.43;16.97;;;;;;;;;;5096424;28;20269;-89
2023/01/23 05:05:08;;;;;;;28.93;16.57;;;;;;;;;;5095666;28;20631;-88
2023/01/23 05:07:35;;;;;;;28.80;16.07;;;;;;;;;;5096114;28;20312;-89
2023/01/23 05:10:03;;;;;;;28.00;16.37;;;;;;;;;;5096079;28;20613;-88
2023/01/23 05:12:31;;;;;;;28.73;16.03;;;;;;;;;;5096234;28;20634;-89
2023/01/23 05:14:59;;;;;;;30.37;16.20;;;;;;;;;;5096115;28;20242;-89
2023/01/23 05:17:26;;;;;;;26.93;16.00;;;;;;;;;;5095900;28;20740;-89
2023/01/23 05:19:53;;;;;;;26.20;15.50;;;;;;;;;;5096039;28;20211;-88
2023/01/23 05:22:21;;;;;;;26.27;15.57;;;;;;;;;;5095701;28;20678;-89
2023/01/23 05:24:49;;;;;;;25.83;15.70;;;;;;;;;;5095803;28;20501;-88
2023/01/23 05:27:16;;;;;;;28.23;15.40;;;;;;;;;;5096250;28;20224;-87
2023/01/23 05:29:45;;;;;;;24.73;15.40;;;;;;;;;;5095794;28;20235;-88
2023/01/23 05:32:12;;;;;;;25.60;14.63;;;;;;;;;;5095751;28;20226;-88
2023/01/23 05:34:39;;;;;;;32.20;16.13;;;;;;;;;;5095083;28;20310;-88
2023/01/23 05:37:07;;;;;;;28.47;15.17;;;;;;;;;;5094981;28;20239;-88
2023/01/23 05:39:34;;;;;;;28.87;15.67;;;;;;;;;;5095725;28;20276;-89
2023/01/23 05:42:01;;;;;;;26.80;15.80;;;;;;;;;;5095544;28;20279;-88
2023/01/23 05:44:29;;;;;;;30.03;15.43;;;;;;;;;;5095523;28;20214;-89
2023/01/23 05:46:57;;;;;;;27.13;15.63;;;;;;;;;;5095622;28;20204;-89
2023/01/23 05:49:26;;;;;;;26.13;14.83;;;;;;;;;;5095461;28;20218;-89
2023/01/23 05:51:53;;;;;;;28.47;15.30;;;;;;;;;;5094636;28;20226;-87
2023/01/23 05:54:21;;;;;;;24.73;15.30;;;;;;;;;;5094954;28;20289;-87
2023/01/23 05:56:48;;;;;;;29.37;15.33;;;;;;;;;;5096017;28;20230;-87
2023/01/23 05:59:15;;;;;;;29.47;15.87;;;;;;;;;;5095134;28;20228;-88
2023/01/23 06:01:43;;;;;;;26.33;14.87;;;;;;;;;;5077211;28;20214;-89
2023/01/23 06:04:12;;;;;;;31.07;14.80;;;;;;;;;;5094377;28;20722;-88
2023/01/23 06:06:39;;;;;;;30.13;14.67;;;;;;;;;;5094675;28;20192;-88
2023/01/23 06:09:06;;;;;;;30.97;15.70;;;;;;;;;;5072670;28;20735;-81
2023/01/23 06:11:34;;;;;;;24.90;14.33;;;;;;;;;;5081877;28;20303;-83
2023/01/23 06:14:02;;;;;;;27.73;15.47;;;;;;;;;;5091865;28;20233;-82
2023/01/23 06:16:29;;;;;;;26.07;14.90;;;;;;;;;;5092769;28;20241;-82
2023/01/23 06:18:57;;;;;;;26.30;14.37;;;;;;;;;;5093310;28;20224;-89
2023/01/23 06:21:25;;;;;;;27.13;14.57;;;;;;;;;;5093703;28;20288;-82
2023/01/23 06:23:52;;;;;;;25.30;14.43;;;;;;;;;;5092494;28;20289;-82
2023/01/23 06:26:20;;;;;;;25.43;14.27;;;;;;;;;;5092285;28;20232;-82
2023/01/23 06:28:47;;;;;;;48.87;27.23;;;;;;;;;;5092307;28;20676;-83
2023/01/23 06:31:14;;;;;;;35.70;21.07;;;;;;;;;;5092491;28;20939;-81
2023/01/23 06:33:41;;;;;;;73.53;39.27;;;;;;;;;;5091835;28;20228;-80
2023/01/23 06:36:09;;;;;;;47.03;28.47;;;;;;;;;;5092219;28;20729;-80
2023/01/23 06:38:37;;;;;;;34.10;22.50;;;;;;;;;;5085495;28;20240;-82
2023/01/23 06:41:05;;;;;;;26.80;16.53;;;;;;;;;;5072144;28;20221;-84
2023/01/23 06:43:32;;;;;;;28.97;18.00;;;;;;;;;;5071916;28;20274;-81
2023/01/23 06:45:59;;;;;;;80.53;42.00;;;;;;;;;;5086818;28;20300;-86
2023/01/23 06:48:26;;;;;;;37.70;19.47;;;;;;;;;;5091817;28;20217;-85
2023/01/23 06:50:53;;;;;;;46.03;26.10;;;;;;;;;;5093095;28;20292;-85
2023/01/23 06:53:21;;;;;;;28.27;17.23;;;;;;;;;;5092852;28;20617;-86
2023/01/23 06:55:49;;;;;;;26.90;16.70;;;;;;;;;;5075277;28;20283;-85
2023/01/23 06:58:17;;;;;;;27.37;15.70;;;;;;;;;;5092988;28;20199;-85
2023/01/23 07:00:44;;;;;;;33.83;19.13;;;;;;;;;;5075590;28;20293;-86
2023/01/23 07:03:12;;;;;;;28.87;16.50;;;;;;;;;;5092752;28;20228;-86
2023/01/23 07:05:41;;;;;;;41.33;25.83;;;;;;;;;;5092829;28;20288;-86
2023/01/23 07:08:09;;;;;;;49.50;30.00;;;;;;;;;;5092722;28;20285;-86
2023/01/23 07:10:36;;;;;;;51.23;29.80;;;;;;;;;;5093030;28;20419;-86
2023/01/23 07:13:06;;;;;;;70.57;42.57;;;;;;;;;;5092977;28;20250;-86
2023/01/23 07:15:33;;;;;;;35.73;23.07;;;;;;;;;;5092938;28;20279;-86
2023/01/23 07:18:00;;;;;;;41.23;27.00;;;;;;;;;;5092751;28;20224;-84
2023/01/23 07:20:28;;;;;;;56.80;34.43;;;;;;;;;;5092785;28;20244;-86
2023/01/23 07:22:55;;;;;;;46.43;30.50;;;;;;;;;;5092942;28;20228;-86
2023/01/23 07:25:23;;;;;;;43.87;28.97;;;;;;;;;;5092076;28;20261;-86
2023/01/23 07:27:50;;;;;;;41.67;27.53;;;;;;;;;;5092876;28;20213;-86
2023/01/23 07:30:19;;;;;;;37.77;25.80;;;;;;;;;;5092851;28;20195;-87
2023/01/23 07:32:46;;;;;;;33.17;22.00;;;;;;;;;;5092638;28;20209;-86
2023/01/23 07:35:14;;;;;;;32.87;21.37;;;;;;;;;;5092835;28;20315;-86
2023/01/23 07:37:41;;;;;;;32.73;20.47;;;;;;;;;;5092627;28;20643;-85
2023/01/23 07:40:09;;;;;;;41.00;26.57;;;;;;;;;;5092623;28;20747;-85
2023/01/23 07:42:36;;;;;;;31.80;20.77;;;;;;;;;;5092885;28;20224;-86
2023/01/23 07:45:04;;;;;;;32.77;19.63;;;;;;;;;;5092444;28;20292;-86
2023/01/23 07:47:33;;;;;;;26.77;15.40;;;;;;;;;;5092062;28;20235;-85
2023/01/23 07:50:00;;;;;;;31.57;19.27;;;;;;;;;;5092778;28;20327;-86
2023/01/23 07:52:28;;;;;;;59.50;31.50;;;;;;;;;;5092154;28;20750;-86
2023/01/23 07:54:55;;;;;;;48.60;28.83;;;;;;;;;;5092762;28;20314;-87
2023/01/23 07:57:22;;;;;;;50.23;28.40;;;;;;;;;;5074442;28;20738;-86
2023/01/23 07:59:49;;;;;;;45.40;26.97;;;;;;;;;;5092533;28;20268;-86
2023/01/23 08:02:17;;;;;;;55.63;30.20;;;;;;;;;;5091992;28;20769;-86
2023/01/23 08:04:46;;;;;;;49.13;29.30;;;;;;;;;;5074442;28;20678;-86
2023/01/23 08:07:13;;;;;;;43.93;26.27;;;;;;;;;;5092425;28;20293;-86
2023/01/23 08:09:40;;;;;;;46.10;27.00;;;;;;;;;;5092238;28;20267;-86
2023/01/23 08:12:08;;;;;;;40.97;23.47;;;;;;;;;;5092441;28;20267;-87
2023/01/23 08:14:35;;;;;;;37.50;21.63;;;;;;;;;;5092145;28;20250;-86
2023/01/23 08:17:02;;;;;;;31.50;19.67;;;;;;;;;;5092436;28;20198;-87
2023/01/23 08:19:29;;;;;;;33.43;21.03;;;;;;;;;;5092526;28;20625;-86
2023/01/23 08:21:58;;;;;;;43.20;25.93;;;;;;;;;;5091979;28;20224;-86
2023/01/23 08:24:25;;;;;;;36.13;21.77;;;;;;;;;;5092197;28;20660;-86
2023/01/23 08:26:53;;;;;;;25.60;16.70;;;;;;;;;;5092126;28;20228;-86
2023/01/23 08:29:20;;;;;;;30.93;18.70;;;;;;;;;;5074274;28;20210;-86
2023/01/23 08:31:47;;;;;;;25.70;18.83;;;;;;;;;;5091272;28;20743;-88
2023/01/23 08:34:15;;;;;;;21.93;14.83;;;;;;;;;;5091898;28;20254;-85
2023/01/23 08:36:42;;;;;;;20.50;13.27;;;;;;;;;;5092860;28;20292;-86
2023/01/23 08:39:10;;;;;;;18.70;14.70;;;;;;;;;;5095986;28;20284;-86
2023/01/23 08:41:38;;;;;;;20.43;13.57;;;;;;;;;;5097356;28;20220;-87
2023/01/23 08:44:05;;;;;;;17.87;12.03;;;;;;;;;;5095653;28;20198;-86
2023/01/23 08:46:32;;;;;;;15.73;11.27;;;;;;;;;;5095065;28;20208;-86
2023/01/23 08:48:59;;;;;;;16.17;11.90;;;;;;;;;;5095268;28;20623;-85
2023/01/23 08:51:27;;;;;;;16.10;12.27;;;;;;;;;;5095228;28;20232;-86
2023/01/23 08:53:54;;;;;;;16.30;11.83;;;;;;;;;;5095659;28;20540;-85
2023/01/23 08:56:24;;;;;;;15.80;12.67;;;;;;;;;;5095392;28;20302;-85
2023/01/23 08:58:51;;;;;;;17.10;12.07;;;;;;;;;;5094901;28;20307;-86
2023/01/23 09:01:19;;;;;;;18.40;13.57;;;;;;;;;;5095040;28;20231;-86
2023/01/23 09:03:47;;;;;;;16.90;12.47;;;;;;;;;;5095091;28;20216;-84
2023/01/23 09:06:15;;;;;;;16.37;12.60;;;;;;;;;;5094866;28;20581;-86
2023/01/23 09:08:42;;;;;;;15.97;11.77;;;;;;;;;;5094524;28;20261;-86
2023/01/23 09:11:10;;;;;;;13.43;11.40;;;;;;;;;;5088405;28;20282;-85
2023/01/23 09:13:39;;;;;;;16.80;11.83;;;;;;;;;;5074001;28;20242;-86
2023/01/23 09:16:08;;;;;;;15.17;12.10;;;;;;;;;;5074485;28;20312;-85
2023/01/23 09:18:35;;;;;;;18.23;12.63;;;;;;;;;;5074432;28;20203;-85
2023/01/23 09:21:06;;;;;;;16.17;12.57;;;;;;;;;;5074182;28;20238;-85
2023/01/23 09:23:33;;;;;;;18.03;13.10;;;;;;;;;;5074470;28;20208;-87
2023/01/23 09:26:03;;;;;;;20.00;13.87;;;;;;;;;;5074342;28;20236;-86
2023/01/23 09:28:30;;;;;;;18.53;13.50;;;;;;;;;;5074029;28;20278;-85
2023/01/23 09:31:02;;;;;;;19.53;13.83;;;;;;;;;;5074149;28;20286;-85
2023/01/23 09:33:30;;;;;;;20.57;13.47;;;;;;;;;;5074065;28;20298;-84
2023/01/23 09:35:57;;;;;;;21.03;14.67;;;;;;;;;;5073775;28;20239;-85
2023/01/23 09:38:25;;;;;;;24.03;14.87;;;;;;;;;;5074010;28;20215;-85
2023/01/23 09:40:54;;;;;;;21.67;15.13;;;;;;;;;;5073819;28;20202;-84
2023/01/23 09:43:24;;;;;;;27.07;18.13;;;;;;;;;;5073953;28;20255;-84
2023/01/23 09:45:58;;;;;;;26.63;15.83;;;;;;;;;;5072411;28;20231;-85
2023/01/23 09:48:28;;;;;;;26.53;16.23;;;;;;;;;;5072815;28;20288;-85
2023/01/23 09:50:57;;;;;;;29.33;18.63;;;;;;;;;;5073535;28;20231;-85
2023/01/23 09:53:26;;;;;;;27.73;18.50;;;;;;;;;;5073817;28;20340;-85
2023/01/23 09:55:56;;;;;;;27.50;17.40;;;;;;;;;;5073414;28;20555;-85
2023/01/23 09:58:26;;;;;;;25.43;16.23;;;;;;;;;;5073078;28;20195;-84
2023/01/23 10:00:53;;;;;;;25.63;15.43;;;;;;;;;;5073187;28;20764;-85
2023/01/23 10:03:20;;;;;;;30.10;17.83;;;;;;;;;;5073455;28;20294;-85
2023/01/23 10:05:54;;;;;;;25.73;15.93;;;;;;;;;;5073418;28;20224;-85
2023/01/23 10:08:27;;;;;;;44.47;25.17;;;;;;;;;;5072774;28;20247;-85
2023/01/23 10:10:57;;;;;;;24.37;16.10;;;;;;;;;;5076598;28;20274;-84
2023/01/23 10:13:34;;;;;;;28.57;16.63;;;;;;;;;;5093100;28;20287;-85
2023/01/23 10:16:06;;;;;;;26.70;17.13;;;;;;;;;;5093502;28;20336;-84
2023/01/23 10:18:36;;;;;;;26.00;15.63;;;;;;;;;;5093067;28;20229;-85
2023/01/23 10:21:15;;;;;;;31.37;16.67;;;;;;;;;;5093210;28;20232;-85
2023/01/23 10:23:47;;;;;;;25.10;15.27;;;;;;;;;;5093275;28;20284;-84
2023/01/23 10:26:16;;;;;;;25.27;14.53;;;;;;;;;;5092962;28;20282;-85
2023/01/23 10:28:44;;;;;;;24.50;14.80;;;;;;;;;;5093306;28;20390;-85
2023/01/23 10:31:16;;;;;;;23.33;15.10;;;;;;;;;;5093292;28;20614;-85
2023/01/23 10:33:46;;;;;;;23.03;14.70;;;;;;;;;;5093249;28;20649;-84
2023/01/23 10:36:19;;;;;;;22.70;13.50;;;;;;;;;;5092664;28;20788;-85
2023/01/23 10:38:49;;;;;;;22.00;13.80;;;;;;;;;;5092734;28;20742;-84
2023/01/23 10:41:18;;;;;;;23.70;15.17;;;;;;;;;;5092645;28;20287;-84
2023/01/23 10:43:47;;;;;;;20.27;13.93;;;;;;;;;;5092820;28;20187;-85
2023/01/23 10:46:15;;;;;;;21.20;13.50;;;;;;;;;;5092543;28;20726;-85
2023/01/23 10:48:44;;;;;;;22.17;14.90;;;;;;;;;;5092678;28;20241;-85
2023/01/23 10:51:30;;;;;;;22.87;15.30;;;;;;;;;;5074750;28;20320;-85
2023/01/23 10:54:01;;;;;;;22.30;15.30;;;;;;;;;;5092412;28;20229;-85
2023/01/23 10:56:28;;;;;;;23.40;16.43;;;;;;;;;;5092366;28;20307;-85
2023/01/23 10:58:56;;;;;;;21.87;15.43;;;;;;;;;;5092716;28;20227;-85
2023/01/23 11:01:25;;;;;;;21.37;15.27;;;;;;;;;;5093008;28;20298;-84
2023/01/23 11:03:53;;;;;;;23.90;15.23;;;;;;;;;;5093078;28;20574;-84
2023/01/23 11:06:24;;;;;;;20.20;13.73;;;;;;;;;;5093632;28;20233;-85
2023/01/23 11:08:56;;;;;;;21.27;14.37;;;;;;;;;;5093457;28;20233;-85
2023/01/23 11:11:25;;;;;;;21.80;14.13;;;;;;;;;;5092241;28;20281;-84
2023/01/23 11:14:04;;;;;;;20.83;14.13;;;;;;;;;;5092564;28;20200;-84
2023/01/23 11:16:32;;;;;;;21.40;14.17;;;;;;;;;;5091903;28;20246;-85
2023/01/23 11:19:05;;;;;;;21.03;13.90;;;;;;;;;;5092347;28;20734;-85
2023/01/23 11:21:34;;;;;;;22.27;14.17;;;;;;;;;;5091966;28;20225;-85
2023/01/23 11:24:18;;;;;;;22.57;14.70;;;;;;;;;;5091657;28;20289;-87
2023/01/23 11:26:45;;;;;;;24.23;14.67;;;;;;;;;;5092260;28;20198;-86
2023/01/23 11:29:22;;;;;;;22.43;14.17;;;;;;;;;;5091989;28;20194;-84
2023/01/23 11:31:52;;;;;;;22.10;13.87;;;;;;;;;;5092160;28;20883;-85
2023/01/23 11:34:20;;;;;;;21.77;13.83;;;;;;;;;;5092105;28;20280;-85
2023/01/23 11:36:51;;;;;;;24.00;14.53;;;;;;;;;;5091933;28;20316;-85
2023/01/23 11:39:23;;;;;;;23.10;14.53;;;;;;;;;;5091810;28;20225;-84
2023/01/23 11:41:50;;;;;;;24.93;14.63;;;;;;;;;;5092223;28;20194;-85
2023/01/23 11:44:18;;;;;;;27.40;16.17;;;;;;;;;;5091886;28;20650;-85
2023/01/23 11:46:55;;;;;;;27.13;15.23;;;;;;;;;;5091754;28;20233;-85
2023/01/23 11:49:34;;;;;;;23.67;13.87;;;;;;;;;;5092010;28;20614;-84
2023/01/23 11:52:10;;;;;;;25.23;14.63;;;;;;;;;;5096198;28;20224;-84
2023/01/23 11:54:51;;;;;;;24.93;14.73;;;;;;;;;;5091772;28;20586;-84
2023/01/23 11:57:22;;;;;;;24.43;15.00;;;;;;;;;;5091659;28;20715;-85
2023/01/23 11:59:56;;;;;;;28.10;16.67;;;;;;;;;;5092091;28;20201;-85
2023/01/23 12:02:39;;;;;;;27.90;16.53;;;;;;;;;;5091812;28;20301;-83
2023/01/23 12:05:16;;;;;;;24.40;15.30;;;;;;;;;;5091660;28;20232;-85
2023/01/23 12:07:50;;;;;;;30.63;15.77;;;;;;;;;;5091221;28;20235;-85
2023/01/23 12:10:24;;;;;;;26.63;16.23;;;;;;;;;;5091705;28;20260;-83
2023/01/23 12:12:55;;;;;;;26.30;15.53;;;;;;;;;;5094585;28;20197;-85
2023/01/23 12:15:28;;;;;;;25.13;15.33;;;;;;;;;;5095709;28;20227;-85
2023/01/23 12:17:59;;;;;;;23.67;14.83;;;;;;;;;;5096462;28;20197;-85
2023/01/23 12:20:32;;;;;;;25.33;15.53;;;;;;;;;;5095727;28;20282;-85
2023/01/23 12:23:10;;;;;;;28.07;16.03;;;;;;;;;;5095518;28;20285;-85
2023/01/23 12:25:39;;;;;;;23.90;14.23;;;;;;;;;;5095712;28;20276;-85
2023/01/23 12:28:17;;;;;;;23.40;14.47;;;;;;;;;;5095396;28;20305;-84
2023/01/23 12:31:09;;;;;;;26.17;14.37;;;;;;;;;;5095575;28;20231;-85
2023/01/23 12:33:40;;;;;;;25.33;14.77;;;;;;;;;;5095344;28;20251;-84
2023/01/23 12:36:17;;;;;;;25.53;14.77;;;;;;;;;;5095290;28;20304;-85
2023/01/23 12:38:49;;;;;;;23.93;14.23;;;;;;;;;;5095421;28;20217;-84
2023/01/23 12:41:22;;;;;;;24.40;14.13;;;;;;;;;;5095275;28;20221;-84
2023/01/23 12:43:53;;;;;;;24.60;15.23;;;;;;;;;;5095286;28;20232;-84
2023/01/23 12:46:23;;;;;;;26.67;14.93;;;;;;;;;;5095215;28;20285;-83
2023/01/23 12:48:52;;;;;;;25.40;14.77;;;;;;;;;;5095270;28;20225;-83
2023/01/23 12:51:21;;;;;;;25.43;14.90;;;;;;;;;;5077440;28;20278;-85
2023/01/23 12:53:50;;;;;;;25.50;15.50;;;;;;;;;;5095083;28;20628;-84
2023/01/23 12:56:22;;;;;;;27.40;15.03;;;;;;;;;;5095029;28;20613;-85
2023/01/23 12:58:56;;;;;;;25.70;14.20;;;;;;;;;;5094818;28;20285;-84
2023/01/23 13:01:29;;;;;;;24.30;14.60;;;;;;;;;;5095036;28;20281;-85
2023/01/23 13:04:03;;;;;;;25.07;14.37;;;;;;;;;;5095505;28;20624;-85
2023/01/23 13:06:36;;;;;;;23.63;14.13;;;;;;;;;;5094459;28;20215;-84
2023/01/23 13:09:08;;;;;;;21.63;13.70;;;;;;;;;;5094588;28;20262;-85
2023/01/23 13:11:43;;;;;;;23.00;14.07;;;;;;;;;;5094592;28;20288;-85
2023/01/23 13:14:22;;;;;;;24.60;14.57;;;;;;;;;;5094488;28;20201;-85
2023/01/23 13:16:51;;;;;;;23.43;14.17;;;;;;;;;;5094715;28;20232;-84
2023/01/23 13:22:13;;;;;;;21.67;12.77;;;;;;;;;;5094658;28;20204;-84
2023/01/23 13:27:49;;;;;;;22.50;13.37;;;;;;;;;;5095028;28;20204;-85
2023/01/23 13:30:35;;;;;;;21.17;12.20;;;;;;;;;;5093762;28;20202;-85
2023/01/23 13:33:27;;;;;;;18.57;11.47;;;;;;;;;;5094545;28;20285;-84
2023/01/23 13:35:54;;;;;;;18.87;11.50;;;;;;;;;;5093789;28;20324;-85
2023/01/23 13:38:36;;;;;;;20.33;12.30;;;;;;;;;;5093992;28;20221;-84
2023/01/23 13:41:22;;;;;;;21.13;13.13;;;;;;;;;;5094523;28;20251;-84
2023/01/23 13:43:54;;;;;;;19.57;11.40;;;;;;;;;;5095387;28;20742;-85
2023/01/23 13:46:28;;;;;;;22.07;12.90;;;;;;;;;;5096601;28;20308;-84
2023/01/23 13:51:44;;;;;;;21.90;13.43;;;;;;;;;;5096146;28;20803;-84
2023/01/23 13:57:01;;;;;;;23.33;13.57;;;;;;;;;;5095588;28;20232;-85
2023/01/23 13:59:30;;;;;;;23.70;13.40;;;;;;;;;;5094312;28;20226;-84
2023/01/23 14:05:14;;;;;;;21.20;12.60;;;;;;;;;;5093196;28;20623;-85
2023/01/23 14:07:47;;;;;;;23.67;14.47;;;;;;;;;;5093436;28;20254;-83
2023/01/23 14:10:16;;;;;;;23.23;14.03;;;;;;;;;;5093500;28;20234;-85
2023/01/23 14:12:43;;;;;;;23.87;14.70;;;;;;;;;;5074005;28;20293;-84
2023/01/23 14:18:14;;;;;;;22.87;13.87;;;;;;;;;;5073070;28;20210;-82
2023/01/23 14:20:43;;;;;;;22.70;13.93;;;;;;;;;;5073021;28;20292;-85
2023/01/23 14:23:24;;;;;;;25.13;15.50;;;;;;;;;;5073002;28;20229;-84
2023/01/23 14:25:52;;;;;;;36.37;20.10;;;;;;;;;;5073009;28;20264;-85
2023/01/23 14:28:19;;;;;;;26.50;15.20;;;;;;;;;;5072975;28;20315;-84
2023/01/23 14:30:57;;;;;;;26.13;15.00;;;;;;;;;;5072965;28;20281;-85
2023/01/23 14:33:24;;;;;;;23.50;13.53;;;;;;;;;;5072153;28;20252;-85
2023/01/23 14:35:54;;;;;;;21.80;13.20;;;;;;;;;;5071885;28;20698;-85
2023/01/23 14:38:25;;;;;;;23.13;13.47;;;;;;;;;;5073218;28;20194;-85
2023/01/23 14:40:52;;;;;;;23.10;13.57;;;;;;;;;;5072587;28;20230;-84
2023/01/23 14:43:21;;;;;;;21.27;12.90;;;;;;;;;;5072936;28;20238;-84
2023/01/23 14:45:50;;;;;;;22.07;12.17;;;;;;;;;;5072836;28;20651;-85
2023/01/23 14:48:18;;;;;;;21.13;12.33;;;;;;;;;;5071973;28;20202;-83
2023/01/23 14:50:45;;;;;;;21.27;12.33;;;;;;;;;;5072915;28;20245;-84
2023/01/23 14:53:15;;;;;;;22.30;12.50;;;;;;;;;;5072544;28;20631;-84